createdAt,value
2023-03-11T00:00:33.301Z,16.30
2023-03-11T00:03:03.384Z,16.30
2023-03-11T00:05:34.669Z,16.30
2023-03-11T00:08:04.593Z,16.30
2023-03-11T00:10:35.297Z,16.30
2023-03-11T00:13:05.742Z,16.30
2023-03-11T00:15:34.631Z,16.30
2023-03-11T00:18:03.295Z,16.30
2023-03-11T00:20:34.278Z,16.30
2023-03-11T00:23:03.256Z,16.30
2023-03-11T00:25:33.306Z,16.30
2023-03-11T00:28:02.169Z,16.30
2023-03-11T00:30:32.054Z,16.30
2023-03-11T00:33:00.754Z,16.30
2023-03-11T00:35:31.067Z,16.30
2023-03-11T00:38:01.162Z,16.30
2023-03-11T00:40:31.745Z,16.30
2023-03-11T00:43:00.517Z,16.30
2023-03-11T00:45:31.897Z,16.30
2023-03-11T00:48:00.208Z,16.30
2023-03-11T00:50:31.297Z,16.30
2023-03-11T00:53:00.311Z,16.20
2023-03-11T00:55:30.735Z,16.20
2023-03-11T00:58:00.889Z,16.20
2023-03-11T01:00:31.910Z,16.20
2023-03-11T01:03:01.671Z,16.20
2023-03-11T01:05:32.086Z,16.20
2023-03-11T01:08:01.436Z,16.20
2023-03-11T01:10:31.147Z,16.20
2023-03-11T01:12:59.823Z,16.20
2023-03-11T01:15:32.418Z,16.20
2023-03-11T01:18:00.979Z,16.20
2023-03-11T01:20:29.875Z,16.20
2023-03-11T01:22:58.293Z,16.20
2023-03-11T01:25:26.988Z,16.20
2023-03-11T01:27:55.330Z,16.20
2023-03-11T01:30:25.237Z,16.10
2023-03-11T01:32:56.040Z,16.20
2023-03-11T01:35:27.118Z,16.20
2023-03-11T01:37:55.810Z,16.10
2023-03-11T01:40:29.984Z,16.10
2023-03-11T01:42:58.399Z,16.10
2023-03-11T01:45:42.577Z,16.10
2023-03-11T01:48:12.592Z,16.10
2023-03-11T01:50:44.966Z,16.10
2023-03-11T01:53:14.587Z,16.10
2023-03-11T01:55:43.285Z,16.00
2023-03-11T01:58:17.261Z,16.10
2023-03-11T02:00:45.864Z,16.00
2023-03-11T02:03:20.542Z,16.00
2023-03-11T02:05:50.516Z,16.00
2023-03-11T02:08:18.774Z,16.00
2023-03-11T02:10:48.061Z,16.00
2023-03-11T02:13:17.404Z,15.90
2023-03-11T02:15:46.415Z,15.90
2023-03-11T02:18:18.618Z,15.90
2023-03-11T02:20:52.093Z,15.90
2023-03-11T02:23:25.119Z,15.90
2023-03-11T02:26:01.435Z,15.90
2023-03-11T02:28:33.478Z,15.90
2023-03-11T02:31:01.914Z,15.90
2023-03-11T02:33:33.448Z,15.90
2023-03-11T02:36:01.931Z,15.80
2023-03-11T02:38:30.342Z,15.80
2023-03-11T02:40:59.658Z,15.80
2023-03-11T02:43:36.964Z,15.80
2023-03-11T02:46:10.005Z,15.80
2023-03-11T02:48:39.088Z,15.80
2023-03-11T02:51:07.519Z,15.80
2023-03-11T02:53:41.762Z,15.80
2023-03-11T02:56:10.049Z,15.80
2023-03-11T02:58:39.725Z,15.80
2023-03-11T03:01:08.015Z,15.80
2023-03-11T03:03:36.325Z,15.80
2023-03-11T03:06:04.824Z,15.80
2023-03-11T03:08:33.173Z,15.70
2023-03-11T03:11:01.518Z,15.70
2023-03-11T03:13:30.908Z,15.80
2023-03-11T03:16:01.502Z,15.70
2023-03-11T03:18:29.765Z,15.70
2023-03-11T03:20:58.150Z,15.70
2023-03-11T03:23:26.397Z,15.70
2023-03-11T03:25:54.654Z,15.70
2023-03-11T03:28:22.864Z,15.70
2023-03-11T03:30:51.075Z,15.70
2023-03-11T03:33:20.805Z,15.80
2023-03-11T03:35:49.203Z,15.70
2023-03-11T03:38:17.526Z,15.70
2023-03-11T03:40:47.928Z,15.70
2023-03-11T03:43:16.738Z,15.70
2023-03-11T03:45:45.159Z,15.70
2023-03-11T03:48:14.357Z,15.70
2023-03-11T03:50:44.062Z,15.70
2023-03-11T03:53:12.348Z,15.70
2023-03-11T03:55:40.610Z,15.70
2023-03-11T03:58:08.929Z,15.70
2023-03-11T04:00:37.382Z,15.70
2023-03-11T04:03:05.746Z,15.70
2023-03-11T04:05:34.269Z,15.70
2023-03-11T04:08:04.058Z,15.70
2023-03-11T04:10:32.449Z,15.70
2023-03-11T04:13:00.719Z,15.70
2023-03-11T04:15:28.980Z,15.70
2023-03-11T04:17:57.304Z,15.70
2023-03-11T04:20:25.702Z,15.70
2023-03-11T04:22:54.021Z,15.70
2023-03-11T04:25:23.747Z,15.70
2023-03-11T04:27:52.430Z,15.70
2023-03-11T04:30:21.157Z,15.70
2023-03-11T04:32:49.493Z,15.70
2023-03-11T04:35:18.226Z,15.70
2023-03-11T04:37:46.537Z,15.70
2023-03-11T04:40:15.447Z,15.70
2023-03-11T04:42:45.180Z,15.70
2023-03-11T04:45:14.216Z,15.70
2023-03-11T04:47:42.797Z,15.60
2023-03-11T04:50:11.872Z,15.60
2023-03-11T04:52:40.442Z,15.60
2023-03-11T04:55:09.857Z,15.60
2023-03-11T04:57:38.504Z,15.60
2023-03-11T05:00:11.749Z,15.60
2023-03-11T05:02:41.014Z,15.60
2023-03-11T05:05:11.288Z,15.60
2023-03-11T05:07:39.826Z,15.60
2023-03-11T05:10:09.305Z,15.60
2023-03-11T05:12:37.630Z,15.60
2023-03-11T05:15:06.737Z,15.60
2023-03-11T05:17:36.457Z,15.60
2023-03-11T05:20:07.613Z,15.60
2023-03-11T05:22:36.553Z,15.60
2023-03-11T05:25:05.235Z,15.60
2023-03-11T05:27:33.740Z,15.60
2023-03-11T05:30:02.051Z,15.60
2023-03-11T05:32:30.899Z,15.60
2023-03-11T05:35:01.225Z,15.60
2023-03-11T05:37:31.977Z,15.60
2023-03-11T05:40:00.255Z,15.50
2023-03-11T05:42:28.589Z,15.50
2023-03-11T05:44:57.033Z,15.50
2023-03-11T05:47:25.325Z,15.50
2023-03-11T05:49:53.655Z,15.50
2023-03-11T05:52:23.279Z,15.50
2023-03-11T05:54:52.499Z,15.50
2023-03-11T05:57:20.816Z,15.50
2023-03-11T05:59:49.150Z,15.50
2023-03-11T06:02:17.476Z,15.50
2023-03-11T06:04:45.880Z,15.50
2023-03-11T06:07:15.466Z,15.50
2023-03-11T06:09:45.118Z,15.50
2023-03-11T06:12:13.446Z,15.50
2023-03-11T06:14:41.704Z,15.50
2023-03-11T06:17:10.058Z,15.50
2023-03-11T06:19:38.402Z,15.50
2023-03-11T06:22:06.846Z,15.60
2023-03-11T06:24:35.219Z,15.50
2023-03-11T06:27:04.938Z,15.50
2023-03-11T06:29:33.251Z,15.50
2023-03-11T06:32:01.527Z,15.50
2023-03-11T06:34:29.808Z,15.50
2023-03-11T06:36:59.583Z,15.50
2023-03-11T06:39:27.861Z,15.50
2023-03-11T06:41:56.201Z,15.60
2023-03-11T06:44:25.893Z,15.50
2023-03-11T06:46:54.181Z,15.50
2023-03-11T06:49:22.468Z,15.50
2023-03-11T06:51:50.705Z,15.50
2023-03-11T06:54:18.956Z,15.50
2023-03-11T06:56:47.200Z,15.50
2023-03-11T06:59:16.215Z,15.60
2023-03-11T07:01:45.905Z,15.50
2023-03-11T07:04:14.171Z,15.50
2023-03-11T07:06:43.684Z,15.60
2023-03-11T07:09:11.922Z,15.60
2023-03-11T07:11:40.481Z,15.60
2023-03-11T07:14:08.731Z,15.60
2023-03-11T07:16:39.782Z,15.60
2023-03-11T07:19:10.458Z,15.60
2023-03-11T07:21:39.455Z,15.60
2023-03-11T07:24:08.252Z,15.60
2023-03-11T07:26:37.652Z,15.60
2023-03-11T07:29:06.064Z,15.60
2023-03-11T07:31:35.857Z,15.60
2023-03-11T07:34:06.082Z,15.60
2023-03-11T07:36:35.702Z,15.60
2023-03-11T07:39:06.929Z,15.60
2023-03-11T07:41:37.157Z,15.60
2023-03-11T07:44:08.048Z,15.60
2023-03-11T07:46:37.704Z,15.60
2023-03-11T07:49:05.994Z,15.60
2023-03-11T07:51:37.427Z,15.60
2023-03-11T07:54:06.616Z,15.70
2023-03-11T07:56:36.530Z,15.70
2023-03-11T07:59:06.034Z,15.70
2023-03-11T08:01:38.491Z,15.70
2023-03-11T08:04:08.729Z,15.70
2023-03-11T08:06:39.069Z,15.70
2023-03-11T08:09:09.063Z,15.70
2023-03-11T08:11:37.991Z,15.70
2023-03-11T08:14:06.992Z,15.80
2023-03-11T08:16:35.269Z,15.80
2023-03-11T08:19:03.695Z,15.80
2023-03-11T08:21:32.580Z,15.80
2023-03-11T08:24:06.604Z,15.80
2023-03-11T08:26:35.236Z,15.90
2023-03-11T08:29:03.629Z,15.90
2023-03-11T08:31:34.099Z,15.90
2023-03-11T08:34:05.177Z,15.90
2023-03-11T08:36:34.554Z,15.90
2023-03-11T08:39:08.964Z,15.90
2023-03-11T08:41:37.524Z,16.00
2023-03-11T08:44:06.291Z,16.00
2023-03-11T08:46:37.074Z,16.00
2023-03-11T08:49:06.760Z,16.00
2023-03-11T08:51:36.595Z,16.00
2023-03-11T08:54:06.478Z,16.00
2023-03-11T08:56:34.903Z,16.10
2023-03-11T08:59:03.993Z,16.10
2023-03-11T09:01:32.650Z,16.10
2023-03-11T09:04:01.125Z,16.20
2023-03-11T09:06:30.652Z,16.10
2023-03-11T09:08:59.050Z,16.20
2023-03-11T09:11:28.757Z,16.20
2023-03-11T09:13:57.033Z,16.30
2023-03-11T09:16:26.083Z,16.30
2023-03-11T09:18:54.586Z,16.30
2023-03-11T09:21:23.328Z,16.30
2023-03-11T09:23:51.613Z,16.30
2023-03-11T09:26:19.933Z,16.30
2023-03-11T09:28:50.022Z,16.30
2023-03-11T09:31:18.941Z,16.40
2023-03-11T09:33:47.649Z,16.40
2023-03-11T09:36:18.356Z,16.40
2023-03-11T09:38:47.899Z,16.50
2023-03-11T09:41:28.481Z,16.50
2023-03-11T09:44:12.571Z,16.50
2023-03-11T09:47:01.234Z,16.60
2023-03-11T09:49:40.678Z,16.60
2023-03-11T09:52:12.203Z,16.60
2023-03-11T09:54:43.714Z,16.70
2023-03-11T09:57:17.948Z,16.70
2023-03-11T09:59:49.010Z,16.70
2023-03-11T10:02:19.982Z,16.80
2023-03-11T10:04:55.680Z,16.80
2023-03-11T10:07:29.908Z,16.90
2023-03-11T10:09:59.925Z,16.90
2023-03-11T10:12:45.861Z,17.00
2023-03-11T10:15:24.894Z,17.10
2023-03-11T10:18:24.985Z,17.10
2023-03-11T10:21:00.729Z,17.20
2023-03-11T10:23:44.451Z,17.20
2023-03-11T10:26:19.745Z,17.20
2023-03-11T10:28:52.943Z,17.30
2023-03-11T10:31:28.177Z,17.40
2023-03-11T10:34:01.528Z,17.50
2023-03-11T10:36:36.895Z,17.60
2023-03-11T10:39:07.598Z,17.60
2023-03-11T10:41:44.623Z,17.60
2023-03-11T10:44:18.526Z,17.70
2023-03-11T10:46:48.229Z,17.70
2023-03-11T10:49:18.071Z,17.70
2023-03-11T10:51:48.468Z,17.70
2023-03-11T10:54:25.121Z,17.80
2023-03-11T10:56:57.905Z,17.90
2023-03-11T10:59:29.242Z,17.90
2023-03-11T11:02:01.276Z,18.10
2023-03-11T11:04:37.042Z,18.10
2023-03-11T11:07:30.560Z,18.20
2023-03-11T11:10:19.794Z,18.20
2023-03-11T11:12:59.523Z,18.30
2023-03-11T11:15:29.919Z,18.40
2023-03-11T11:18:01.855Z,18.50
2023-03-11T11:20:31.741Z,18.60
2023-03-11T11:23:01.932Z,18.60
2023-03-11T11:25:33.735Z,18.70
2023-03-11T11:28:05.283Z,18.80
2023-03-11T11:30:33.732Z,18.80
2023-03-11T11:35:57.336Z,18.90
2023-03-11T11:38:28.196Z,19.10
2023-03-11T11:40:59.178Z,19.20
2023-03-11T11:43:37.394Z,19.30
2023-03-11T11:46:12.079Z,19.40
2023-03-11T11:48:49.432Z,19.50
2023-03-11T11:51:22.736Z,19.70
2023-03-11T11:53:57.765Z,19.80
2023-03-11T11:56:26.620Z,20.00
2023-03-11T11:58:55.509Z,20.10
2023-03-11T12:01:38.693Z,20.20
2023-03-11T12:04:37.968Z,20.20
2023-03-11T12:07:22.483Z,20.40
2023-03-11T12:10:12.907Z,20.70
2023-03-11T12:12:47.805Z,20.90
2023-03-11T12:15:19.998Z,21.20
2023-03-11T12:17:51.766Z,21.50
2023-03-11T12:20:28.955Z,21.80
2023-03-11T12:23:13.345Z,22.00
2023-03-11T12:25:49.850Z,22.30
2023-03-11T12:28:25.184Z,22.60
2023-03-11T12:30:57.574Z,22.70
2023-03-11T12:33:31.629Z,22.90
2023-03-11T12:36:01.233Z,23.20
2023-03-11T12:38:34.106Z,23.10
2023-03-11T12:41:06.650Z,22.90
2023-03-11T12:44:00.545Z,22.70
2023-03-11T12:47:11.578Z,23.00
2023-03-11T12:49:41.134Z,23.40
2023-03-11T12:52:26.580Z,23.60
2023-03-11T12:55:31.963Z,23.70
2023-03-11T12:58:36.084Z,23.60
2023-03-11T13:01:18.577Z,23.50
2023-03-11T13:04:16.061Z,23.30
2023-03-11T13:07:17.040Z,23.00
2023-03-11T13:09:45.523Z,22.80
2023-03-11T13:12:44.605Z,22.50
2023-03-11T13:15:34.916Z,22.40
2023-03-11T13:18:06.804Z,22.30
2023-03-11T13:20:48.436Z,22.20
2023-03-11T13:23:26.986Z,22.20
2023-03-11T13:26:31.447Z,22.10
2023-03-11T13:29:41.763Z,22.10
2023-03-11T13:32:46.976Z,21.90
2023-03-11T13:35:30.042Z,21.90
2023-03-11T13:38:18.990Z,21.90
2023-03-11T13:40:47.971Z,21.80
2023-03-11T13:43:19.048Z,21.90
2023-03-11T13:45:54.823Z,21.90
2023-03-11T13:48:29.596Z,21.80
2023-03-11T13:51:02.710Z,21.70
2023-03-11T13:53:35.611Z,21.70
2023-03-11T13:56:04.007Z,21.60
2023-03-11T13:58:32.448Z,21.50
2023-03-11T14:01:03.969Z,21.40
2023-03-11T14:03:38.148Z,21.60
2023-03-11T14:06:09.604Z,21.90
2023-03-11T14:08:39.920Z,22.20
2023-03-11T14:11:18.013Z,22.30
2023-03-11T14:13:49.929Z,22.60
2023-03-11T14:16:24.018Z,23.00
2023-03-11T14:19:04.810Z,23.00
2023-03-11T14:21:37.078Z,23.40
2023-03-11T14:24:05.893Z,23.60
2023-03-11T14:26:36.773Z,23.90
2023-03-11T14:29:10.800Z,24.00
2023-03-11T14:31:44.255Z,23.90
2023-03-11T14:34:18.454Z,23.70
2023-03-11T14:36:51.461Z,23.60
2023-03-11T14:39:32.199Z,23.40
2023-03-11T14:42:07.166Z,23.10
2023-03-11T14:44:38.819Z,22.90
2023-03-11T14:47:15.292Z,22.70
2023-03-11T14:49:44.908Z,22.50
2023-03-11T14:52:20.411Z,22.30
2023-03-11T14:54:51.011Z,22.20
2023-03-11T14:57:24.717Z,22.00
2023-03-11T14:59:54.650Z,22.00
2023-03-11T15:02:39.413Z,21.80
2023-03-11T15:05:16.052Z,21.80
2023-03-11T15:07:45.962Z,21.70
2023-03-11T15:10:15.318Z,21.70
2023-03-11T15:12:45.606Z,21.60
2023-03-11T15:15:28.594Z,21.60
2023-03-11T15:18:00.211Z,21.60
2023-03-11T15:20:31.608Z,21.50
2023-03-11T15:23:01.941Z,21.50
2023-03-11T15:25:33.319Z,21.40
2023-03-11T15:28:15.244Z,21.40
2023-03-11T15:30:43.648Z,21.30
2023-03-11T15:33:24.436Z,21.30
2023-03-11T15:35:52.778Z,21.30
2023-03-11T15:38:23.704Z,21.20
2023-03-11T15:40:54.850Z,21.20
2023-03-11T15:43:29.216Z,21.10
2023-03-11T15:45:59.925Z,21.10
2023-03-11T15:48:31.417Z,21.00
2023-03-11T15:51:01.561Z,21.00
2023-03-11T15:53:31.558Z,21.00
2023-03-11T15:56:07.738Z,20.90
2023-03-11T15:58:38.258Z,21.00
2023-03-11T16:01:07.493Z,21.00
2023-03-11T16:03:39.177Z,20.90
2023-03-11T16:06:07.848Z,21.00
2023-03-11T16:08:36.270Z,20.90
2023-03-11T16:11:04.497Z,20.90
2023-03-11T16:13:32.796Z,20.90
2023-03-11T16:16:02.846Z,20.80
2023-03-11T16:18:33.927Z,20.80
2023-03-11T16:21:10.125Z,20.80
2023-03-11T16:23:51.188Z,20.70
2023-03-11T16:26:22.149Z,20.80
2023-03-11T16:28:50.422Z,20.70
2023-03-11T16:31:18.714Z,20.70
2023-03-11T16:33:46.968Z,20.60
2023-03-11T16:36:16.675Z,20.50
2023-03-11T16:38:47.654Z,20.50
2023-03-11T16:41:17.277Z,20.50
2023-03-11T16:43:46.314Z,20.50
2023-03-11T16:46:14.718Z,20.50
2023-03-11T16:48:43.134Z,20.40
2023-03-11T16:51:11.493Z,20.40
2023-03-11T16:53:41.233Z,20.40
2023-03-11T16:56:09.581Z,20.30
2023-03-11T16:58:37.917Z,20.30
2023-03-11T17:01:06.370Z,20.30
2023-03-11T17:03:42.478Z,20.30
2023-03-11T17:06:11.247Z,20.30
2023-03-11T17:08:41.039Z,20.20
2023-03-11T17:11:16.202Z,20.20
2023-03-11T17:13:44.594Z,20.20
2023-03-11T17:16:12.961Z,20.20
2023-03-11T17:18:41.394Z,20.20
2023-03-11T17:21:10.702Z,20.20
2023-03-11T17:23:40.471Z,20.20
2023-03-11T17:26:09.808Z,20.20
2023-03-11T17:28:40.170Z,20.20
2023-03-11T17:31:11.827Z,20.10
2023-03-11T17:33:40.161Z,20.20
2023-03-11T17:36:10.418Z,20.10
2023-03-11T17:38:40.182Z,20.10
2023-03-11T17:41:09.773Z,20.10
2023-03-11T17:43:38.301Z,20.00
2023-03-11T17:46:09.016Z,20.00
2023-03-11T17:48:37.345Z,20.10
2023-03-11T17:51:10.295Z,20.00
2023-03-11T17:53:40.795Z,20.00
2023-03-11T17:56:10.147Z,20.00
2023-03-11T17:58:38.596Z,20.00
2023-03-11T18:01:08.506Z,20.00
2023-03-11T18:03:36.979Z,19.90
2023-03-11T18:06:07.381Z,19.90
2023-03-11T18:08:37.115Z,19.90
2023-03-11T18:11:09.502Z,19.90
2023-03-11T18:13:38.634Z,19.90
2023-03-11T18:16:09.163Z,19.90
2023-03-11T18:18:38.554Z,19.90
2023-03-11T18:21:09.017Z,19.80
2023-03-11T18:23:37.600Z,19.80
2023-03-11T18:26:09.240Z,19.80
2023-03-11T18:28:37.556Z,19.80
2023-03-11T18:31:10.244Z,19.80
2023-03-11T18:33:39.891Z,19.80
2023-03-11T18:36:16.470Z,19.70
2023-03-11T18:38:46.209Z,19.70
2023-03-11T18:41:20.529Z,19.70
2023-03-11T18:43:53.679Z,19.70
2023-03-11T18:46:22.417Z,19.70
2023-03-11T18:48:51.218Z,19.70
2023-03-11T18:51:20.326Z,19.60
2023-03-11T18:53:48.825Z,19.60
2023-03-11T18:56:19.979Z,19.60
2023-03-11T18:58:48.240Z,19.60
2023-03-11T19:01:17.932Z,19.60
2023-03-11T19:03:51.101Z,19.60
2023-03-11T19:06:19.853Z,19.60
2023-03-11T19:08:48.424Z,19.60
2023-03-11T19:11:20.514Z,19.60
2023-03-11T19:13:48.979Z,19.50
2023-03-11T19:16:19.706Z,19.50
2023-03-11T19:18:48.770Z,19.50
2023-03-11T19:21:18.110Z,19.50
2023-03-11T19:23:46.889Z,19.50
2023-03-11T19:26:15.249Z,19.50
2023-03-11T19:28:45.748Z,19.40
2023-03-11T19:31:14.055Z,19.40
2023-03-11T19:33:43.313Z,19.40
2023-03-11T19:36:12.526Z,19.40
2023-03-11T19:38:40.735Z,19.40
2023-03-11T19:41:10.597Z,19.40
2023-03-11T19:43:39.082Z,19.40
2023-03-11T19:46:11.594Z,19.40
2023-03-11T19:48:40.089Z,19.40
2023-03-11T19:51:08.409Z,19.30
2023-03-11T19:53:37.999Z,19.30
2023-03-11T19:56:06.849Z,19.30
2023-03-11T19:58:35.777Z,19.30
2023-03-11T20:01:04.365Z,19.30
2023-03-11T20:03:34.068Z,19.30
2023-03-11T20:06:06.917Z,19.30
2023-03-11T20:08:37.413Z,19.30
2023-03-11T20:11:06.689Z,19.30
2023-03-11T20:13:36.655Z,19.30
2023-03-11T20:16:07.168Z,19.30
2023-03-11T20:18:37.035Z,19.20
2023-03-11T20:21:09.656Z,19.30
2023-03-11T20:23:38.570Z,19.30
2023-03-11T20:26:08.180Z,19.20
2023-03-11T20:28:36.736Z,19.20
2023-03-11T20:31:16.760Z,19.20
2023-03-11T20:33:47.373Z,19.20
2023-03-11T20:36:17.592Z,19.20
2023-03-11T20:38:46.129Z,19.20
2023-03-11T20:41:14.647Z,19.20
2023-03-11T20:43:43.343Z,19.20
2023-03-11T20:46:12.665Z,19.20
2023-03-11T20:48:41.535Z,19.20
2023-03-11T20:51:13.435Z,19.20
2023-03-11T20:53:41.902Z,19.10
2023-03-11T20:56:12.413Z,19.10
2023-03-11T20:58:40.834Z,19.10
2023-03-11T21:01:14.361Z,19.10
2023-03-11T21:03:43.103Z,19.10
2023-03-11T21:06:18.100Z,19.10
2023-03-11T21:08:46.811Z,19.10
2023-03-11T21:11:15.380Z,19.10
2023-03-11T21:13:44.009Z,19.00
2023-03-11T21:16:12.837Z,19.00
2023-03-11T21:18:42.745Z,19.00
2023-03-11T21:21:11.826Z,19.00
2023-03-11T21:23:43.995Z,19.00
2023-03-11T21:26:14.880Z,19.00
2023-03-11T21:28:46.967Z,19.00
2023-03-11T21:31:18.775Z,19.00
2023-03-11T21:33:48.479Z,18.90
2023-03-11T21:36:18.042Z,18.90
2023-03-11T21:38:48.451Z,18.90
2023-03-11T21:41:19.102Z,18.90
2023-03-11T21:43:48.797Z,18.90
2023-03-11T21:46:19.010Z,18.90
2023-03-11T21:48:48.065Z,18.90
2023-03-11T21:51:18.198Z,18.90
2023-03-11T21:53:48.985Z,18.80
2023-03-11T21:56:17.765Z,18.80
2023-03-11T21:58:46.378Z,18.90
2023-03-11T22:01:14.977Z,18.90
2023-03-11T22:03:44.011Z,18.90
2023-03-11T22:06:13.577Z,18.80
2023-03-11T22:08:42.840Z,18.80
2023-03-11T22:11:18.646Z,18.80
2023-03-11T22:13:49.351Z,18.80
2023-03-11T22:16:18.395Z,18.80
2023-03-11T22:18:47.211Z,18.80
2023-03-11T22:21:16.740Z,18.80
2023-03-11T22:23:46.499Z,18.70
2023-03-11T22:26:17.092Z,18.70
2023-03-11T22:28:45.457Z,18.70
2023-03-11T22:31:15.946Z,18.70
2023-03-11T22:33:44.353Z,18.70
2023-03-11T22:36:13.332Z,18.70
2023-03-11T22:38:44.609Z,18.70
2023-03-11T22:41:14.720Z,18.70
2023-03-11T22:43:44.724Z,18.70
2023-03-11T22:46:13.030Z,18.60
2023-03-11T22:48:41.414Z,18.60
2023-03-11T22:51:10.069Z,18.60
2023-03-11T22:53:38.454Z,18.50
2023-03-11T22:56:09.555Z,18.50
2023-03-11T22:58:37.847Z,18.50
2023-03-11T23:01:08.044Z,18.50
2023-03-11T23:03:37.342Z,18.50
2023-03-11T23:06:08.626Z,18.50
2023-03-11T23:08:37.062Z,18.40
2023-03-11T23:11:06.770Z,18.40
2023-03-11T23:13:36.270Z,18.40
2023-03-11T23:16:08.371Z,18.30
2023-03-11T23:18:37.761Z,18.30
2023-03-11T23:21:06.556Z,18.30
2023-03-11T23:23:34.838Z,18.20
2023-03-11T23:26:09.313Z,18.30
2023-03-11T23:28:41.220Z,18.30
2023-03-11T23:31:11.924Z,18.30
2023-03-11T23:33:40.639Z,18.20
2023-03-11T23:36:10.971Z,18.20
2023-03-11T23:38:39.329Z,18.20
2023-03-11T23:41:08.324Z,18.20
2023-03-11T23:43:36.843Z,18.20
2023-03-11T23:46:05.707Z,18.20
2023-03-11T23:48:35.585Z,18.20
2023-03-11T23:51:04.731Z,18.20
2023-03-11T23:53:34.973Z,18.20
2023-03-11T23:56:03.375Z,18.20
2023-03-11T23:58:33.079Z,18.10
